createdAt,value
2022-10-01T00:00:48.946Z,100.00
2022-10-01T00:03:18.945Z,100.00
2022-10-01T00:05:48.466Z,100.00
2022-10-01T00:08:18.129Z,100.00
2022-10-01T00:10:47.600Z,100.00
2022-10-01T00:13:24.643Z,100.00
2022-10-01T00:15:53.773Z,100.00
2022-10-01T00:18:22.945Z,100.00
2022-10-01T00:20:52.085Z,100.00
2022-10-01T00:23:21.049Z,100.00
2022-10-01T00:25:55.206Z,100.00
2022-10-01T00:28:26.886Z,100.00
2022-10-01T00:30:56.357Z,100.00
2022-10-01T00:33:26.105Z,100.00
2022-10-01T00:36:01.683Z,100.00
2022-10-01T00:38:30.976Z,100.00
2022-10-01T00:41:00.250Z,100.00
2022-10-01T00:43:33.589Z,100.00
2022-10-01T00:46:14.207Z,100.00
2022-10-01T00:48:55.190Z,100.00
2022-10-01T00:51:25.036Z,100.00
2022-10-01T00:54:01.491Z,100.00
2022-10-01T00:56:30.822Z,100.00
2022-10-01T00:59:01.965Z,100.00
2022-10-01T01:01:38.969Z,100.00
2022-10-01T01:04:15.962Z,100.00
2022-10-01T01:06:46.504Z,100.00
2022-10-01T01:09:20.627Z,100.00
2022-10-01T01:12:00.921Z,100.00
2022-10-01T01:14:48.250Z,100.00
2022-10-01T01:17:24.714Z,100.00
2022-10-01T01:20:10.904Z,100.00
2022-10-01T01:22:47.550Z,100.00
2022-10-01T01:25:21.781Z,100.00
2022-10-01T01:28:04.322Z,100.00
2022-10-01T01:30:40.664Z,100.00
2022-10-01T01:33:20.032Z,100.00
2022-10-01T01:35:58.543Z,100.00
2022-10-01T01:38:32.720Z,100.00
2022-10-01T01:41:04.860Z,100.00
2022-10-01T01:43:41.402Z,100.00
2022-10-01T01:46:13.700Z,100.00
2022-10-01T01:48:48.742Z,100.00
2022-10-01T01:51:24.322Z,100.00
2022-10-01T01:53:53.911Z,100.00
2022-10-01T01:56:23.032Z,100.00
2022-10-01T01:58:55.404Z,100.00
2022-10-01T02:01:38.816Z,100.00
2022-10-01T02:04:18.109Z,100.00
2022-10-01T02:07:14.777Z,100.00
2022-10-01T02:09:53.436Z,100.00
2022-10-01T02:12:35.096Z,100.00
2022-10-01T02:15:21.018Z,100.00
2022-10-01T02:17:56.694Z,100.00
2022-10-01T02:20:36.713Z,100.00
2022-10-01T02:23:11.849Z,100.00
2022-10-01T02:25:50.503Z,100.00
2022-10-01T02:28:24.397Z,100.00
2022-10-01T02:30:57.960Z,100.00
2022-10-01T02:33:31.916Z,100.00
2022-10-01T02:36:13.374Z,100.00
2022-10-01T02:38:46.161Z,100.00
2022-10-01T02:41:18.966Z,100.00
2022-10-01T02:43:54.679Z,100.00
2022-10-01T02:46:44.310Z,100.00
2022-10-01T02:49:14.860Z,100.00
2022-10-01T02:51:53.838Z,100.00
2022-10-01T02:54:32.908Z,100.00
2022-10-01T02:57:18.202Z,100.00
2022-10-01T02:59:47.369Z,100.00
2022-10-01T03:02:18.863Z,100.00
2022-10-01T03:04:48.744Z,100.00
2022-10-01T03:07:18.142Z,100.00
2022-10-01T03:09:52.745Z,100.00
2022-10-01T03:12:22.879Z,100.00
2022-10-01T03:14:53.261Z,100.00
2022-10-01T03:17:24.380Z,100.00
2022-10-01T03:22:36.696Z,100.00
2022-10-01T03:25:06.891Z,100.00
2022-10-01T03:27:35.793Z,100.00
2022-10-01T03:30:05.219Z,100.00
2022-10-01T03:32:41.456Z,100.00
2022-10-01T03:35:11.799Z,100.00
2022-10-01T03:37:40.881Z,100.00
2022-10-01T03:40:16.909Z,100.00
2022-10-01T03:42:45.921Z,100.00
2022-10-01T03:45:21.866Z,100.00
2022-10-01T03:47:55.506Z,100.00
2022-10-01T03:50:24.841Z,100.00
2022-10-01T03:52:53.882Z,100.00
2022-10-01T03:55:28.100Z,100.00
2022-10-01T03:57:58.189Z,100.00
2022-10-01T04:00:27.725Z,100.00
2022-10-01T04:05:44.522Z,100.00
2022-10-01T04:08:14.621Z,100.00
2022-10-01T04:10:49.617Z,100.00
2022-10-01T04:13:19.418Z,100.00
2022-10-01T04:15:48.682Z,100.00
2022-10-01T04:18:21.167Z,100.00
2022-10-01T04:20:50.886Z,100.00
2022-10-01T04:23:20.315Z,100.00
2022-10-01T04:25:49.442Z,100.00
2022-10-01T04:28:18.878Z,100.00
2022-10-01T04:30:48.500Z,100.00
2022-10-01T04:33:25.771Z,100.00
2022-10-01T04:35:55.977Z,100.00
2022-10-01T04:38:26.000Z,100.00
2022-10-01T04:40:55.068Z,100.00
2022-10-01T04:43:24.069Z,100.00
2022-10-01T04:45:58.091Z,100.00
2022-10-01T04:48:29.538Z,100.00
2022-10-01T04:51:05.087Z,100.00
2022-10-01T04:53:34.218Z,100.00
2022-10-01T04:56:04.073Z,100.00
2022-10-01T04:58:33.157Z,100.00
2022-10-01T05:01:02.535Z,100.00
2022-10-01T05:03:34.101Z,100.00
2022-10-01T05:06:03.297Z,100.00
2022-10-01T05:08:32.385Z,100.00
2022-10-01T05:11:02.723Z,100.00
2022-10-01T05:13:31.962Z,100.00
2022-10-01T05:16:03.274Z,100.00
2022-10-01T05:18:34.775Z,100.00
2022-10-01T05:21:07.462Z,100.00
2022-10-01T05:23:43.226Z,100.00
2022-10-01T05:26:12.270Z,100.00
2022-10-01T05:28:44.141Z,100.00
2022-10-01T05:31:15.595Z,100.00
2022-10-01T05:33:46.614Z,100.00
2022-10-01T05:36:25.826Z,100.00
2022-10-01T05:38:54.962Z,100.00
2022-10-01T05:41:23.958Z,100.00
2022-10-01T05:43:53.299Z,100.00
2022-10-01T05:46:22.211Z,100.00
2022-10-01T05:48:58.374Z,100.00
2022-10-01T05:51:27.903Z,100.00
2022-10-01T05:53:58.566Z,100.00
2022-10-01T05:56:33.031Z,100.00
2022-10-01T05:59:08.169Z,100.00
2022-10-01T06:01:37.440Z,100.00
2022-10-01T06:04:13.624Z,100.00
2022-10-01T06:06:43.069Z,100.00
2022-10-01T06:09:17.409Z,100.00
2022-10-01T06:11:48.425Z,100.00
2022-10-01T06:14:17.869Z,100.00
2022-10-01T06:16:47.363Z,100.00
2022-10-01T06:19:18.510Z,100.00
2022-10-01T06:21:47.586Z,100.00
2022-10-01T06:24:16.863Z,100.00
2022-10-01T06:26:48.129Z,100.00
2022-10-01T06:29:17.482Z,100.00
2022-10-01T06:31:46.591Z,100.00
2022-10-01T06:34:17.672Z,100.00
2022-10-01T06:36:47.273Z,100.00
2022-10-01T06:39:16.696Z,100.00
2022-10-01T06:41:50.871Z,100.00
2022-10-01T06:44:20.295Z,100.00
2022-10-01T06:46:49.403Z,100.00
2022-10-01T06:49:21.722Z,100.00
2022-10-01T06:52:08.754Z,100.00
2022-10-01T06:54:37.963Z,100.00
2022-10-01T06:57:07.192Z,100.00
2022-10-01T06:59:39.531Z,100.00
2022-10-01T07:02:09.347Z,100.00
2022-10-01T07:04:40.852Z,100.00
2022-10-01T07:07:09.833Z,100.00
2022-10-01T07:09:44.979Z,100.00
2022-10-01T07:12:14.166Z,100.00
2022-10-01T07:14:43.480Z,100.00
2022-10-01T07:19:49.817Z,100.00
2022-10-01T07:22:26.134Z,100.00
2022-10-01T07:25:00.261Z,100.00
2022-10-01T07:27:29.488Z,100.00
2022-10-01T07:29:58.688Z,100.00
2022-10-01T07:32:31.234Z,100.00
2022-10-01T07:35:03.062Z,100.00
2022-10-01T07:37:32.374Z,100.00
2022-10-01T07:40:06.525Z,100.00
2022-10-01T07:42:37.953Z,99.28
2022-10-01T07:45:08.466Z,98.63
2022-10-01T07:47:37.621Z,98.67
2022-10-01T07:50:09.912Z,99.62
2022-10-01T07:52:39.222Z,99.45
2022-10-01T07:55:10.791Z,99.92
2022-10-01T07:57:39.650Z,99.49
2022-10-01T08:00:10.450Z,98.96
2022-10-01T08:02:41.809Z,99.15
2022-10-01T08:05:24.860Z,99.01
2022-10-01T08:07:54.126Z,99.32
2022-10-01T08:10:24.877Z,99.14
2022-10-01T08:12:54.074Z,98.25
2022-10-01T08:15:23.133Z,97.75
2022-10-01T08:17:52.226Z,97.28
2022-10-01T08:23:03.575Z,97.01
2022-10-01T08:25:32.794Z,96.34
2022-10-01T08:28:02.151Z,96.08
2022-10-01T08:30:32.613Z,95.88
2022-10-01T08:33:10.946Z,95.34
2022-10-01T08:35:43.373Z,94.43
2022-10-01T08:38:13.680Z,94.69
2022-10-01T08:40:46.926Z,94.95
2022-10-01T08:43:29.865Z,93.83
2022-10-01T08:46:03.186Z,93.54
2022-10-01T08:48:41.818Z,92.24
2022-10-01T08:51:25.753Z,91.46
2022-10-01T08:53:59.440Z,92.14
2022-10-01T08:56:33.758Z,92.76
2022-10-01T08:59:07.297Z,93.11
2022-10-01T09:01:41.571Z,93.11
2022-10-01T09:04:11.355Z,93.16
2022-10-01T09:06:43.764Z,93.33
2022-10-01T09:09:30.159Z,92.13
2022-10-01T09:12:15.168Z,91.58
2022-10-01T09:14:59.799Z,91.41
2022-10-01T09:17:50.822Z,90.78
2022-10-01T09:20:27.021Z,90.71
2022-10-01T09:23:14.392Z,90.99
2022-10-01T09:25:49.747Z,90.60
2022-10-01T09:28:22.590Z,90.68
2022-10-01T09:30:57.345Z,90.69
2022-10-01T09:33:31.897Z,91.00
2022-10-01T09:36:12.873Z,92.02
2022-10-01T09:38:54.722Z,92.44
2022-10-01T09:41:24.477Z,92.66
2022-10-01T09:43:53.594Z,92.77
2022-10-01T09:46:31.260Z,93.14
2022-10-01T09:49:05.161Z,93.66
2022-10-01T09:51:40.432Z,92.97
2022-10-01T09:54:18.695Z,92.79
2022-10-01T09:56:52.638Z,92.41
2022-10-01T09:59:26.443Z,91.87
2022-10-01T10:02:03.547Z,92.02
2022-10-01T10:04:32.892Z,92.23
2022-10-01T10:07:04.751Z,92.41
2022-10-01T10:09:41.071Z,92.13
2022-10-01T10:12:28.973Z,91.82
2022-10-01T10:14:59.133Z,91.28
2022-10-01T10:17:28.847Z,91.06
2022-10-01T10:19:58.060Z,91.70
2022-10-01T10:22:30.812Z,92.02
2022-10-01T10:25:13.893Z,91.89
2022-10-01T10:27:54.919Z,92.09
2022-10-01T10:30:26.115Z,92.00
2022-10-01T10:35:43.939Z,92.60
2022-10-01T10:38:19.984Z,93.22
2022-10-01T10:40:52.209Z,93.48
2022-10-01T10:43:24.773Z,94.28
2022-10-01T10:45:56.516Z,94.73
2022-10-01T10:48:33.933Z,94.64
2022-10-01T10:51:06.059Z,95.30
2022-10-01T10:53:44.549Z,96.20
2022-10-01T10:56:23.478Z,96.01
2022-10-01T10:58:53.549Z,95.16
2022-10-01T11:01:32.116Z,95.19
2022-10-01T11:04:03.540Z,94.17
2022-10-01T11:06:33.105Z,93.93
2022-10-01T11:09:06.953Z,93.00
2022-10-01T11:11:50.892Z,93.13
2022-10-01T11:14:37.991Z,91.84
2022-10-01T11:17:33.929Z,90.22
2022-10-01T11:20:21.842Z,88.35
2022-10-01T11:23:11.706Z,87.79
2022-10-01T11:25:47.665Z,86.71
2022-10-01T11:28:30.869Z,86.45
2022-10-01T11:31:08.048Z,86.04
2022-10-01T11:33:46.884Z,84.77
2022-10-01T11:36:24.544Z,82.06
2022-10-01T11:39:01.332Z,80.16
2022-10-01T11:41:36.117Z,79.40
2022-10-01T11:44:14.230Z,79.58
2022-10-01T11:46:53.027Z,80.66
2022-10-01T11:49:36.393Z,80.25
2022-10-01T11:52:12.414Z,80.88
2022-10-01T11:54:58.438Z,80.68
2022-10-01T11:57:41.955Z,81.80
2022-10-01T12:00:16.701Z,81.75
2022-10-01T12:02:52.722Z,82.06
2022-10-01T12:05:37.991Z,82.34
2022-10-01T12:08:15.370Z,82.82
2022-10-01T12:10:49.621Z,83.85
2022-10-01T12:13:28.529Z,83.97
2022-10-01T12:16:06.758Z,84.40
2022-10-01T12:18:50.858Z,85.05
2022-10-01T12:21:24.835Z,85.08
2022-10-01T12:23:58.596Z,85.94
2022-10-01T12:26:46.179Z,86.54
2022-10-01T12:29:24.536Z,87.74
2022-10-01T12:32:02.620Z,88.58
2022-10-01T12:34:41.021Z,89.23
2022-10-01T12:37:28.229Z,88.49
2022-10-01T12:40:26.087Z,88.85
2022-10-01T12:43:21.472Z,88.37
2022-10-01T12:46:02.051Z,88.36
2022-10-01T12:48:42.365Z,88.89
2022-10-01T12:56:39.052Z,88.99
2022-10-01T12:59:34.977Z,90.58
2022-10-01T13:02:22.600Z,91.55
2022-10-01T13:05:07.601Z,91.36
2022-10-01T13:07:52.246Z,91.82
2022-10-01T13:10:36.727Z,90.98
2022-10-01T13:13:18.774Z,90.33
2022-10-01T13:16:00.618Z,90.72
2022-10-01T13:18:36.193Z,90.25
2022-10-01T13:21:11.256Z,90.71
2022-10-01T13:23:46.827Z,91.58
2022-10-01T13:26:21.259Z,92.16
2022-10-01T13:29:02.447Z,92.58
2022-10-01T13:31:39.530Z,92.63
2022-10-01T13:34:44.909Z,92.18
2022-10-01T13:37:16.763Z,91.66
2022-10-01T13:39:47.542Z,92.19
2022-10-01T13:42:27.048Z,92.58
2022-10-01T13:45:03.040Z,93.12
2022-10-01T13:47:34.075Z,93.14
2022-10-01T13:50:06.099Z,94.27
2022-10-01T13:52:36.161Z,94.42
2022-10-01T13:57:50.920Z,94.83
2022-10-01T14:00:31.084Z,95.17
2022-10-01T14:03:06.700Z,94.83
2022-10-01T14:05:40.819Z,95.04
2022-10-01T14:08:29.128Z,95.73
2022-10-01T14:11:18.365Z,95.51
2022-10-01T14:14:06.238Z,95.47
2022-10-01T14:16:56.411Z,96.42
2022-10-01T14:19:28.010Z,96.71
2022-10-01T14:22:15.955Z,97.46
2022-10-01T14:25:10.565Z,98.47
2022-10-01T14:27:47.401Z,97.91
2022-10-01T14:30:25.353Z,97.99
2022-10-01T14:33:17.715Z,98.60
2022-10-01T14:35:57.430Z,98.14
2022-10-01T14:38:27.202Z,98.23
2022-10-01T14:40:57.012Z,98.91
2022-10-01T14:43:28.178Z,98.80
2022-10-01T14:45:59.904Z,99.12
2022-10-01T14:48:32.894Z,99.40
2022-10-01T14:51:05.944Z,99.85
2022-10-01T14:53:40.053Z,100.00
2022-10-01T14:56:13.815Z,100.00
2022-10-01T14:58:53.552Z,100.00
2022-10-01T15:01:24.457Z,100.00
2022-10-01T15:04:00.754Z,100.00
2022-10-01T15:06:32.139Z,100.00
2022-10-01T15:09:13.998Z,100.00
2022-10-01T15:11:45.526Z,100.00
2022-10-01T15:14:19.997Z,100.00
2022-10-01T15:16:50.613Z,100.00
2022-10-01T15:19:25.021Z,100.00
2022-10-01T15:22:01.880Z,100.00
2022-10-01T15:24:38.994Z,100.00
2022-10-01T15:27:10.126Z,100.00
2022-10-01T15:29:40.482Z,100.00
2022-10-01T15:32:11.253Z,100.00
2022-10-01T15:34:45.621Z,100.00
2022-10-01T15:37:22.799Z,100.00
2022-10-01T15:39:58.077Z,100.00
2022-10-01T15:42:31.411Z,100.00
2022-10-01T15:45:25.114Z,100.00
2022-10-01T15:47:56.644Z,100.00
2022-10-01T15:50:31.933Z,100.00
2022-10-01T15:53:06.259Z,100.00
2022-10-01T15:55:51.696Z,100.00
2022-10-01T15:58:24.239Z,100.00
2022-10-01T16:01:04.920Z,100.00
2022-10-01T16:03:41.625Z,100.00
2022-10-01T16:06:23.386Z,100.00
2022-10-01T16:08:57.612Z,100.00
2022-10-01T16:11:31.531Z,100.00
2022-10-01T16:14:24.934Z,100.00
2022-10-01T16:17:35.377Z,100.00
2022-10-01T16:20:35.621Z,100.00
2022-10-01T16:23:34.643Z,100.00
2022-10-01T16:26:04.485Z,100.00
2022-10-01T16:28:41.085Z,100.00
2022-10-01T16:31:10.656Z,100.00
2022-10-01T16:33:42.085Z,100.00
2022-10-01T16:36:11.935Z,100.00
2022-10-01T16:38:40.979Z,100.00
2022-10-01T16:41:12.698Z,100.00
2022-10-01T16:43:41.938Z,100.00
2022-10-01T16:46:13.318Z,100.00
2022-10-01T16:48:44.224Z,100.00
2022-10-01T16:51:13.300Z,100.00
2022-10-01T16:53:43.534Z,100.00
2022-10-01T16:56:13.163Z,100.00
2022-10-01T16:58:42.817Z,100.00
2022-10-01T17:01:21.515Z,100.00
2022-10-01T17:03:57.742Z,100.00
2022-10-01T17:06:27.520Z,100.00
2022-10-01T17:08:56.629Z,100.00
2022-10-01T17:11:28.102Z,100.00
2022-10-01T17:13:57.910Z,100.00
2022-10-01T17:16:27.031Z,100.00
2022-10-01T17:19:04.279Z,100.00
2022-10-01T17:21:35.132Z,100.00
2022-10-01T17:24:04.714Z,100.00
2022-10-01T17:26:33.854Z,100.00
2022-10-01T17:29:03.393Z,100.00
2022-10-01T17:31:35.693Z,100.00
2022-10-01T17:34:08.144Z,100.00
2022-10-01T17:36:37.500Z,100.00
2022-10-01T17:39:06.624Z,100.00
2022-10-01T17:41:37.347Z,100.00
2022-10-01T17:44:06.495Z,100.00
2022-10-01T17:46:35.984Z,100.00
2022-10-01T17:49:08.314Z,100.00
2022-10-01T17:51:38.827Z,100.00
2022-10-01T17:54:08.178Z,100.00
2022-10-01T17:56:38.438Z,100.00
2022-10-01T17:59:07.926Z,100.00
2022-10-01T18:01:38.265Z,100.00
2022-10-01T18:04:22.130Z,100.00
2022-10-01T18:06:56.931Z,100.00
2022-10-01T18:09:28.413Z,100.00
2022-10-01T18:11:57.462Z,100.00
2022-10-01T18:14:26.698Z,100.00
2022-10-01T18:16:56.189Z,100.00
2022-10-01T18:19:52.984Z,100.00
2022-10-01T18:22:18.609Z,100.00
2022-10-01T18:24:47.642Z,100.00
2022-10-01T18:27:18.245Z,100.00
2022-10-01T18:29:47.502Z,100.00
2022-10-01T18:32:24.912Z,100.00
2022-10-01T18:35:02.858Z,100.00
2022-10-01T18:37:40.097Z,100.00
2022-10-01T18:40:14.493Z,100.00
2022-10-01T18:42:54.053Z,100.00
2022-10-01T18:45:35.414Z,100.00
2022-10-01T18:48:20.251Z,100.00
2022-10-01T18:51:02.825Z,100.00
2022-10-01T18:53:52.970Z,100.00
2022-10-01T18:56:32.023Z,100.00
2022-10-01T18:59:31.980Z,100.00
2022-10-01T19:02:21.848Z,100.00
2022-10-01T19:05:22.881Z,100.00
2022-10-01T19:08:05.105Z,100.00
2022-10-01T19:10:46.169Z,100.00
2022-10-01T19:13:22.764Z,100.00
2022-10-01T19:16:04.593Z,100.00
2022-10-01T19:18:46.151Z,100.00
2022-10-01T19:21:25.323Z,100.00
2022-10-01T19:24:13.897Z,100.00
2022-10-01T19:26:49.374Z,100.00
2022-10-01T19:29:35.228Z,100.00
2022-10-01T19:32:11.153Z,100.00
2022-10-01T19:34:50.422Z,100.00
2022-10-01T19:37:27.776Z,100.00
2022-10-01T19:40:06.867Z,100.00
2022-10-01T19:42:45.279Z,100.00
2022-10-01T19:45:23.918Z,100.00
2022-10-01T19:48:02.222Z,100.00
2022-10-01T19:50:35.578Z,100.00
2022-10-01T19:53:06.575Z,100.00
2022-10-01T19:55:39.575Z,100.00
2022-10-01T19:58:18.263Z,100.00
2022-10-01T20:00:51.086Z,100.00
2022-10-01T20:03:26.796Z,100.00
2022-10-01T20:06:00.188Z,100.00
2022-10-01T20:08:36.238Z,100.00
2022-10-01T20:11:15.676Z,100.00
2022-10-01T20:14:10.245Z,100.00
2022-10-01T20:16:46.618Z,100.00
2022-10-01T20:19:26.250Z,100.00
2022-10-01T20:22:02.905Z,100.00
2022-10-01T20:24:48.977Z,100.00
2022-10-01T20:27:32.665Z,100.00
2022-10-01T20:30:09.586Z,100.00
2022-10-01T20:32:43.685Z,100.00
2022-10-01T20:35:24.509Z,100.00
2022-10-01T20:38:00.170Z,100.00
2022-10-01T20:40:33.937Z,100.00
2022-10-01T20:43:11.677Z,100.00
2022-10-01T20:45:42.700Z,100.00
2022-10-01T20:48:21.998Z,100.00
2022-10-01T20:50:54.235Z,100.00
2022-10-01T20:53:35.384Z,100.00
2022-10-01T20:56:11.902Z,100.00
2022-10-01T20:58:54.431Z,100.00
2022-10-01T21:01:26.681Z,100.00
2022-10-01T21:04:03.145Z,100.00
2022-10-01T21:06:37.596Z,100.00
2022-10-01T21:09:17.581Z,100.00
2022-10-01T21:11:51.806Z,100.00
2022-10-01T21:14:27.061Z,100.00
2022-10-01T21:17:09.166Z,100.00
2022-10-01T21:19:57.702Z,100.00
2022-10-01T21:22:44.385Z,100.00
2022-10-01T21:25:21.498Z,100.00
2022-10-01T21:28:06.414Z,100.00
2022-10-01T21:30:52.348Z,100.00
2022-10-01T21:33:27.879Z,100.00
2022-10-01T21:36:03.698Z,100.00
2022-10-01T21:38:40.880Z,100.00
2022-10-01T21:41:33.904Z,100.00
2022-10-01T21:44:26.570Z,100.00
2022-10-01T21:47:05.604Z,100.00
2022-10-01T21:49:48.529Z,100.00
2022-10-01T21:52:29.986Z,100.00
2022-10-01T21:55:30.661Z,100.00
2022-10-01T21:58:25.863Z,100.00
2022-10-01T22:01:03.793Z,100.00
2022-10-01T22:03:41.739Z,100.00
2022-10-01T22:06:20.694Z,100.00
2022-10-01T22:09:04.098Z,100.00
2022-10-01T22:11:39.595Z,100.00
2022-10-01T22:14:17.324Z,100.00
2022-10-01T22:16:55.133Z,100.00
2022-10-01T22:19:35.312Z,100.00
2022-10-01T22:22:11.068Z,100.00
2022-10-01T22:24:45.400Z,100.00
2022-10-01T22:27:20.864Z,100.00
2022-10-01T22:29:54.637Z,100.00
2022-10-01T22:32:35.181Z,100.00
2022-10-01T22:35:16.327Z,100.00
2022-10-01T22:37:53.363Z,100.00
2022-10-01T22:40:27.945Z,100.00
2022-10-01T22:43:07.901Z,100.00
2022-10-01T22:45:53.381Z,100.00
2022-10-01T22:48:43.574Z,100.00
2022-10-01T22:51:27.994Z,100.00
2022-10-01T22:54:10.950Z,100.00
2022-10-01T22:56:51.885Z,100.00
2022-10-01T22:59:34.174Z,100.00
2022-10-01T23:02:09.989Z,100.00
2022-10-01T23:04:54.095Z,100.00
2022-10-01T23:07:44.275Z,100.00
2022-10-01T23:10:23.043Z,100.00
2022-10-01T23:13:05.840Z,100.00
2022-10-01T23:15:44.440Z,100.00
2022-10-01T23:18:25.045Z,100.00
2022-10-01T23:21:10.556Z,99.95
2022-10-01T23:23:43.371Z,99.92
2022-10-01T23:26:31.899Z,99.44
2022-10-01T23:29:27.724Z,98.10
2022-10-01T23:32:09.650Z,97.64
2022-10-01T23:34:58.107Z,98.00
2022-10-01T23:37:53.640Z,97.41
2022-10-01T23:40:30.440Z,96.75
2022-10-01T23:43:12.214Z,97.19
2022-10-01T23:45:44.808Z,96.26
2022-10-01T23:51:04.345Z,96.26
2022-10-01T23:53:46.298Z,95.60
2022-10-01T23:56:37.469Z,95.06
2022-10-01T23:59:15.223Z,94.15
